sensor_id;sensor_type;location;lat;lon;timestamp;pressure;altitude;pressure_sealevel;temperature;humidity
10706;BME280;5404;42.656;23.336;2022-12-29T00:01:21;95838.84;;;4.95;100.00
10706;BME280;5404;42.656;23.336;2022-12-29T00:03:47;95839.97;;;4.99;100.00
10706;BME280;5404;42.656;23.336;2022-12-29T00:06:14;95836.75;;;5.09;100.00
10706;BME280;5404;42.656;23.336;2022-12-29T00:08:41;95841.34;;;5.02;100.00
10706;BME280;5404;42.656;23.336;2022-12-29T00:11:17;95842.84;;;4.98;100.00
10706;BME280;5404;42.656;23.336;2022-12-29T00:13:43;95834.69;;;4.99;100.00
10706;BME280;5404;42.656;23.336;2022-12-29T00:16:29;95848.94;;;4.98;100.00
10706;BME280;5404;42.656;23.336;2022-12-29T00:18:55;95828.50;;;4.94;100.00
10706;BME280;5404;42.656;23.336;2022-12-29T00:21:24;95849.84;;;5.04;100.00
10706;BME280;5404;42.656;23.336;2022-12-29T00:24:16;95842.94;;;5.03;100.00
10706;BME280;5404;42.656;23.336;2022-12-29T00:29:48;95843.19;;;5.01;100.00
10706;BME280;5404;42.656;23.336;2022-12-29T00:32:32;95850.19;;;5.07;100.00
10706;BME280;5404;42.656;23.336;2022-12-29T00:35:27;95849.38;;;5.07;100.00
10706;BME280;5404;42.656;23.336;2022-12-29T00:37:55;95855.91;;;5.16;100.00
10706;BME280;5404;42.656;23.336;2022-12-29T00:40:42;95851.16;;;5.18;100.00
10706;BME280;5404;42.656;23.336;2022-12-29T00:43:26;95829.84;;;5.08;100.00
10706;BME280;5404;42.656;23.336;2022-12-29T00:46:11;95854.47;;;5.25;100.00
10706;BME280;5404;42.656;23.336;2022-12-29T00:48:37;95838.28;;;5.21;100.00
10706;BME280;5404;42.656;23.336;2022-12-29T00:51:22;95853.53;;;5.31;100.00
10706;BME280;5404;42.656;23.336;2022-12-29T00:53:48;95847.22;;;5.32;100.00
10706;BME280;5404;42.656;23.336;2022-12-29T00:56:14;95838.84;;;5.23;100.00
10706;BME280;5404;42.656;23.336;2022-12-29T00:58:40;95850.31;;;5.29;100.00
10706;BME280;5404;42.656;23.336;2022-12-29T01:01:07;95833.47;;;5.18;100.00
10706;BME280;5404;42.656;23.336;2022-12-29T01:03:36;95852.31;;;5.22;100.00
10706;BME280;5404;42.656;23.336;2022-12-29T01:06:09;95847.72;;;5.17;100.00
10706;BME280;5404;42.656;23.336;2022-12-29T01:08:37;95834.44;;;5.01;100.00
10706;BME280;5404;42.656;23.336;2022-12-29T01:11:09;95843.13;;;4.85;100.00
10706;BME280;5404;42.656;23.336;2022-12-29T01:13:37;95837.69;;;4.91;100.00
10706;BME280;5404;42.656;23.336;2022-12-29T01:16:05;95819.59;;;4.83;100.00
10706;BME280;5404;42.656;23.336;2022-12-29T01:18:30;95841.16;;;4.80;100.00
10706;BME280;5404;42.656;23.336;2022-12-29T01:21:02;95839.59;;;4.67;100.00
10706;BME280;5404;42.656;23.336;2022-12-29T01:23:28;95829.28;;;4.66;100.00
10706;BME280;5404;42.656;23.336;2022-12-29T01:25:54;95836.63;;;4.64;100.00
10706;BME280;5404;42.656;23.336;2022-12-29T01:28:20;95832.94;;;4.65;100.00
10706;BME280;5404;42.656;23.336;2022-12-29T01:30:46;95836.72;;;4.57;100.00
10706;BME280;5404;42.656;23.336;2022-12-29T01:33:12;95833.19;;;4.52;100.00
10706;BME280;5404;42.656;23.336;2022-12-29T01:35:38;95823.88;;;4.49;100.00
10706;BME280;5404;42.656;23.336;2022-12-29T01:38:05;95825.50;;;4.50;100.00
10706;BME280;5404;42.656;23.336;2022-12-29T01:40:31;95831.44;;;4.57;100.00
10706;BME280;5404;42.656;23.336;2022-12-29T01:42:57;95828.47;;;4.65;100.00
10706;BME280;5404;42.656;23.336;2022-12-29T01:45:23;95804.41;;;4.50;100.00
10706;BME280;5404;42.656;23.336;2022-12-29T01:47:58;95818.03;;;4.47;100.00
10706;BME280;5404;42.656;23.336;2022-12-29T01:50:37;95820.22;;;4.50;100.00
10706;BME280;5404;42.656;23.336;2022-12-29T01:53:13;95826.97;;;4.58;100.00
10706;BME280;5404;42.656;23.336;2022-12-29T01:55:44;95822.84;;;4.62;100.00
10706;BME280;5404;42.656;23.336;2022-12-29T01:58:11;95823.28;;;4.70;100.00
10706;BME280;5404;42.656;23.336;2022-12-29T02:00:37;95812.50;;;4.72;100.00
10706;BME280;5404;42.656;23.336;2022-12-29T02:03:06;95815.56;;;4.81;100.00
10706;BME280;5404;42.656;23.336;2022-12-29T02:06:08;95816.25;;;4.88;100.00
10706;BME280;5404;42.656;23.336;2022-12-29T02:08:38;95806.16;;;4.85;100.00
10706;BME280;5404;42.656;23.336;2022-12-29T02:11:05;95799.81;;;4.86;100.00
10706;BME280;5404;42.656;23.336;2022-12-29T02:13:33;95797.38;;;4.96;100.00
10706;BME280;5404;42.656;23.336;2022-12-29T02:16:30;95799.56;;;4.99;100.00
10706;BME280;5404;42.656;23.336;2022-12-29T02:19:50;95799.66;;;5.04;100.00
10706;BME280;5404;42.656;23.336;2022-12-29T02:39:49;95794.75;;;4.96;100.00
10706;BME280;5404;42.656;23.336;2022-12-29T02:45:32;95799.66;;;5.04;100.00
10706;BME280;5404;42.656;23.336;2022-12-29T02:51:20;95791.16;;;5.02;100.00
10706;BME280;5404;42.656;23.336;2022-12-29T02:53:48;95788.06;;;5.05;100.00
10706;BME280;5404;42.656;23.336;2022-12-29T02:56:32;95765.84;;;4.89;100.00
10706;BME280;5404;42.656;23.336;2022-12-29T02:58:59;95779.84;;;4.90;100.00
10706;BME280;5404;42.656;23.336;2022-12-29T03:04:54;95785.78;;;4.97;100.00
10706;BME280;5404;42.656;23.336;2022-12-29T03:21:46;95772.81;;;4.95;100.00
10706;BME280;5404;42.656;23.336;2022-12-29T03:24:38;95755.59;;;4.93;100.00
10706;BME280;5404;42.656;23.336;2022-12-29T03:27:07;95773.66;;;4.84;100.00
10706;BME280;5404;42.656;23.336;2022-12-29T03:29:38;95761.75;;;4.70;100.00
10706;BME280;5404;42.656;23.336;2022-12-29T03:32:08;95778.41;;;4.70;100.00
10706;BME280;5404;42.656;23.336;2022-12-29T03:34:35;95771.22;;;4.54;100.00
10706;BME280;5404;42.656;23.336;2022-12-29T03:37:06;95782.34;;;4.56;100.00
10706;BME280;5404;42.656;23.336;2022-12-29T03:39:39;95767.69;;;4.37;100.00
10706;BME280;5404;42.656;23.336;2022-12-29T03:42:13;95784.56;;;4.36;100.00
10706;BME280;5404;42.656;23.336;2022-12-29T03:44:41;95778.47;;;4.36;100.00
10706;BME280;5404;42.656;23.336;2022-12-29T03:47:13;95759.00;;;4.14;100.00
10706;BME280;5404;42.656;23.336;2022-12-29T03:49:40;95793.41;;;4.19;100.00
10706;BME280;5404;42.656;23.336;2022-12-29T03:52:07;95783.19;;;3.99;100.00
10706;BME280;5404;42.656;23.336;2022-12-29T03:54:33;95800.28;;;4.08;100.00
10706;BME280;5404;42.656;23.336;2022-12-29T03:56:59;95794.09;;;4.03;100.00
10706;BME280;5404;42.656;23.336;2022-12-29T03:59:24;95796.56;;;3.63;100.00
10706;BME280;5404;42.656;23.336;2022-12-29T04:01:50;95789.56;;;3.45;100.00
10706;BME280;5404;42.656;23.336;2022-12-29T04:04:17;95808.50;;;3.54;100.00
10706;BME280;5404;42.656;23.336;2022-12-29T04:06:43;95767.75;;;3.27;100.00
10706;BME280;5404;42.656;23.336;2022-12-29T04:09:09;95809.59;;;3.46;100.00
10706;BME280;5404;42.656;23.336;2022-12-29T04:11:36;95810.53;;;3.40;100.00
10706;BME280;5404;42.656;23.336;2022-12-29T04:14:02;95791.09;;;3.23;100.00
10706;BME280;5404;42.656;23.336;2022-12-29T04:16:28;95811.63;;;3.33;100.00
10706;BME280;5404;42.656;23.336;2022-12-29T04:18:53;95787.53;;;3.18;100.00
10706;BME280;5404;42.656;23.336;2022-12-29T04:21:19;95810.34;;;3.24;100.00
10706;BME280;5404;42.656;23.336;2022-12-29T04:23:44;95799.19;;;3.10;100.00
10706;BME280;5404;42.656;23.336;2022-12-29T04:26:10;95820.84;;;3.12;100.00
10706;BME280;5404;42.656;23.336;2022-12-29T04:28:36;95813.63;;;3.08;100.00
10706;BME280;5404;42.656;23.336;2022-12-29T04:31:03;95814.97;;;3.10;100.00
10706;BME280;5404;42.656;23.336;2022-12-29T04:33:30;95817.00;;;2.97;100.00
10706;BME280;5404;42.656;23.336;2022-12-29T04:35:57;95807.19;;;2.86;100.00
10706;BME280;5404;42.656;23.336;2022-12-29T04:38:23;95821.06;;;2.93;100.00
10706;BME280;5404;42.656;23.336;2022-12-29T04:40:51;95823.84;;;2.98;100.00
10706;BME280;5404;42.656;23.336;2022-12-29T04:43:18;95828.56;;;2.96;100.00
10706;BME280;5404;42.656;23.336;2022-12-29T04:45:49;95838.50;;;2.94;100.00
10706;BME280;5404;42.656;23.336;2022-12-29T04:48:14;95809.31;;;2.77;100.00
10706;BME280;5404;42.656;23.336;2022-12-29T04:50:42;95846.53;;;2.99;100.00
10706;BME280;5404;42.656;23.336;2022-12-29T04:53:08;95845.13;;;2.96;100.00
10706;BME280;5404;42.656;23.336;2022-12-29T04:55:35;95852.94;;;3.03;100.00
10706;BME280;5404;42.656;23.336;2022-12-29T04:58:00;95847.66;;;3.03;100.00
10706;BME280;5404;42.656;23.336;2022-12-29T05:00:26;95847.31;;;2.99;100.00
10706;BME280;5404;42.656;23.336;2022-12-29T05:02:51;95840.81;;;3.02;100.00
10706;BME280;5404;42.656;23.336;2022-12-29T05:05:18;95855.88;;;3.13;100.00
10706;BME280;5404;42.656;23.336;2022-12-29T05:07:45;95838.41;;;3.00;100.00
10706;BME280;5404;42.656;23.336;2022-12-29T05:10:11;95840.81;;;3.02;100.00
10706;BME280;5404;42.656;23.336;2022-12-29T05:12:37;95836.41;;;3.14;100.00
10706;BME280;5404;42.656;23.336;2022-12-29T05:15:06;95859.88;;;3.15;100.00
10706;BME280;5404;42.656;23.336;2022-12-29T05:20:40;95848.25;;;3.23;100.00
10706;BME280;5404;42.656;23.336;2022-12-29T05:23:06;95837.47;;;3.24;100.00
10706;BME280;5404;42.656;23.336;2022-12-29T05:25:31;95850.03;;;3.40;100.00
10706;BME280;5404;42.656;23.336;2022-12-29T05:27:58;95848.41;;;3.39;100.00
10706;BME280;5404;42.656;23.336;2022-12-29T05:30:23;95845.28;;;3.31;100.00
10706;BME280;5404;42.656;23.336;2022-12-29T05:32:49;95846.72;;;3.45;100.00
10706;BME280;5404;42.656;23.336;2022-12-29T05:35:16;95847.88;;;3.49;100.00
10706;BME280;5404;42.656;23.336;2022-12-29T05:37:43;95849.47;;;3.50;100.00
10706;BME280;5404;42.656;23.336;2022-12-29T05:40:10;95836.53;;;3.48;100.00
10706;BME280;5404;42.656;23.336;2022-12-29T05:42:35;95848.44;;;3.51;100.00
10706;BME280;5404;42.656;23.336;2022-12-29T05:45:01;95859.75;;;3.70;100.00
10706;BME280;5404;42.656;23.336;2022-12-29T05:47:26;95856.88;;;3.83;100.00
10706;BME280;5404;42.656;23.336;2022-12-29T05:49:52;95849.56;;;3.85;100.00
10706;BME280;5404;42.656;23.336;2022-12-29T05:52:42;95859.53;;;3.83;100.00
10706;BME280;5404;42.656;23.336;2022-12-29T05:55:08;95866.88;;;3.92;100.00
10706;BME280;5404;42.656;23.336;2022-12-29T05:57:34;95861.50;;;3.99;100.00
10706;BME280;5404;42.656;23.336;2022-12-29T06:00:01;95864.94;;;3.99;100.00
10706;BME280;5404;42.656;23.336;2022-12-29T06:02:27;95878.81;;;4.06;100.00
10706;BME280;5404;42.656;23.336;2022-12-29T06:04:54;95872.53;;;4.07;100.00
10706;BME280;5404;42.656;23.336;2022-12-29T06:07:21;95853.72;;;4.04;100.00
10706;BME280;5404;42.656;23.336;2022-12-29T06:09:47;95860.25;;;4.13;100.00
10706;BME280;5404;42.656;23.336;2022-12-29T06:12:12;95866.44;;;4.18;100.00
10706;BME280;5404;42.656;23.336;2022-12-29T06:14:38;95853.72;;;4.27;100.00
10706;BME280;5404;42.656;23.336;2022-12-29T06:17:04;95866.22;;;4.43;100.00
10706;BME280;5404;42.656;23.336;2022-12-29T06:19:29;95871.59;;;4.59;100.00
10706;BME280;5404;42.656;23.336;2022-12-29T06:21:55;95870.69;;;4.65;100.00
10706;BME280;5404;42.656;23.336;2022-12-29T06:24:22;95868.06;;;4.65;100.00
10706;BME280;5404;42.656;23.336;2022-12-29T06:26:48;95877.56;;;4.66;100.00
10706;BME280;5404;42.656;23.336;2022-12-29T06:29:14;95867.00;;;4.78;100.00
10706;BME280;5404;42.656;23.336;2022-12-29T06:31:44;95867.91;;;4.95;100.00
10706;BME280;5404;42.656;23.336;2022-12-29T06:34:13;95870.16;;;5.03;100.00
10706;BME280;5404;42.656;23.336;2022-12-29T06:36:40;95841.59;;;4.89;100.00
10706;BME280;5404;42.656;23.336;2022-12-29T06:39:07;95870.25;;;5.08;100.00
10706;BME280;5404;42.656;23.336;2022-12-29T06:41:36;95858.09;;;5.07;100.00
10706;BME280;5404;42.656;23.336;2022-12-29T06:44:03;95861.63;;;5.13;100.00
10706;BME280;5404;42.656;23.336;2022-12-29T06:46:29;95854.56;;;5.02;100.00
10706;BME280;5404;42.656;23.336;2022-12-29T06:48:55;95869.06;;;5.27;100.00
10706;BME280;5404;42.656;23.336;2022-12-29T06:51:22;95850.47;;;5.22;100.00
10706;BME280;5404;42.656;23.336;2022-12-29T06:53:48;95875.69;;;5.41;100.00
10706;BME280;5404;42.656;23.336;2022-12-29T06:56:13;95848.81;;;5.33;100.00
10706;BME280;5404;42.656;23.336;2022-12-29T06:58:39;95881.63;;;5.48;100.00
10706;BME280;5404;42.656;23.336;2022-12-29T07:01:04;95867.31;;;5.33;100.00
10706;BME280;5404;42.656;23.336;2022-12-29T07:03:30;95874.38;;;5.44;100.00
10706;BME280;5404;42.656;23.336;2022-12-29T07:05:56;95869.44;;;5.47;100.00
10706;BME280;5404;42.656;23.336;2022-12-29T07:08:23;95863.81;;;5.72;100.00
10706;BME280;5404;42.656;23.336;2022-12-29T07:10:49;95869.38;;;5.87;100.00
10706;BME280;5404;42.656;23.336;2022-12-29T07:13:15;95865.94;;;5.86;100.00
10706;BME280;5404;42.656;23.336;2022-12-29T07:15:40;95859.78;;;5.98;100.00
10706;BME280;5404;42.656;23.336;2022-12-29T07:18:11;95862.19;;;5.99;100.00
10706;BME280;5404;42.656;23.336;2022-12-29T07:20:38;95847.38;;;5.98;100.00
10706;BME280;5404;42.656;23.336;2022-12-29T07:23:04;95855.22;;;6.10;100.00
10706;BME280;5404;42.656;23.336;2022-12-29T07:25:30;95849.75;;;6.16;100.00
10706;BME280;5404;42.656;23.336;2022-12-29T07:27:56;95851.69;;;6.21;100.00
10706;BME280;5404;42.656;23.336;2022-12-29T07:30:24;95829.31;;;5.95;100.00
10706;BME280;5404;42.656;23.336;2022-12-29T07:32:51;95856.19;;;6.20;100.00
10706;BME280;5404;42.656;23.336;2022-12-29T07:35:18;95853.94;;;6.29;100.00
10706;BME280;5404;42.656;23.336;2022-12-29T07:37:44;95850.63;;;6.38;100.00
10706;BME280;5404;42.656;23.336;2022-12-29T07:40:10;95850.09;;;6.36;100.00
10706;BME280;5404;42.656;23.336;2022-12-29T07:42:36;95851.19;;;6.40;100.00
10706;BME280;5404;42.656;23.336;2022-12-29T07:45:02;95839.25;;;6.38;100.00
10706;BME280;5404;42.656;23.336;2022-12-29T07:47:29;95847.78;;;6.61;100.00
10706;BME280;5404;42.656;23.336;2022-12-29T07:49:54;95851.75;;;6.80;100.00
10706;BME280;5404;42.656;23.336;2022-12-29T07:52:21;95844.84;;;6.79;100.00
10706;BME280;5404;42.656;23.336;2022-12-29T07:54:49;95848.28;;;6.96;100.00
10706;BME280;5404;42.656;23.336;2022-12-29T07:57:16;95849.06;;;6.97;100.00
10706;BME280;5404;42.656;23.336;2022-12-29T07:59:43;95822.44;;;7.08;100.00
10706;BME280;5404;42.656;23.336;2022-12-29T08:02:11;95846.53;;;7.29;100.00
10706;BME280;5404;42.656;23.336;2022-12-29T08:04:37;95832.56;;;7.38;100.00
10706;BME280;5404;42.656;23.336;2022-12-29T08:07:03;95845.09;;;7.43;100.00
10706;BME280;5404;42.656;23.336;2022-12-29T08:09:30;95836.03;;;7.39;100.00
10706;BME280;5404;42.656;23.336;2022-12-29T08:11:56;95835.63;;;7.52;100.00
10706;BME280;5404;42.656;23.336;2022-12-29T08:14:24;95839.34;;;7.77;100.00
10706;BME280;5404;42.656;23.336;2022-12-29T08:16:49;95837.97;;;8.01;100.00
10706;BME280;5404;42.656;23.336;2022-12-29T08:19:15;95826.09;;;8.09;100.00
10706;BME280;5404;42.656;23.336;2022-12-29T08:21:42;95818.25;;;7.92;100.00
10706;BME280;5404;42.656;23.336;2022-12-29T08:24:09;95822.47;;;7.88;100.00
10706;BME280;5404;42.656;23.336;2022-12-29T08:26:34;95808.69;;;7.91;100.00
10706;BME280;5404;42.656;23.336;2022-12-29T08:29:01;95802.00;;;7.84;100.00
10706;BME280;5404;42.656;23.336;2022-12-29T08:31:28;95817.13;;;8.15;100.00
10706;BME280;5404;42.656;23.336;2022-12-29T08:33:54;95819.13;;;7.98;100.00
10706;BME280;5404;42.656;23.336;2022-12-29T08:36:19;95811.44;;;7.70;100.00
10706;BME280;5404;42.656;23.336;2022-12-29T08:38:46;95817.56;;;8.07;100.00
10706;BME280;5404;42.656;23.336;2022-12-29T08:41:12;95817.81;;;8.32;100.00
10706;BME280;5404;42.656;23.336;2022-12-29T08:43:38;95789.72;;;8.46;100.00
10706;BME280;5404;42.656;23.336;2022-12-29T08:46:04;95798.53;;;8.52;100.00
10706;BME280;5404;42.656;23.336;2022-12-29T08:48:29;95809.34;;;8.82;100.00
10706;BME280;5404;42.656;23.336;2022-12-29T08:50:55;95802.16;;;8.82;100.00
10706;BME280;5404;42.656;23.336;2022-12-29T08:53:20;95786.84;;;9.04;100.00
10706;BME280;5404;42.656;23.336;2022-12-29T08:55:46;95785.56;;;9.22;100.00
10706;BME280;5404;42.656;23.336;2022-12-29T08:58:12;95784.28;;;9.50;100.00
10706;BME280;5404;42.656;23.336;2022-12-29T09:00:41;95781.69;;;9.60;100.00
10706;BME280;5404;42.656;23.336;2022-12-29T09:03:07;95769.69;;;9.72;100.00
10706;BME280;5404;42.656;23.336;2022-12-29T09:05:32;95764.25;;;10.88;100.00
10706;BME280;5404;42.656;23.336;2022-12-29T09:07:58;95740.78;;;12.44;100.00
10706;BME280;5404;42.656;23.336;2022-12-29T09:10:24;95730.56;;;13.91;100.00
10706;BME280;5404;42.656;23.336;2022-12-29T09:12:50;95716.16;;;14.65;100.00
10706;BME280;5404;42.656;23.336;2022-12-29T09:15:17;95714.84;;;15.44;100.00
10706;BME280;5404;42.656;23.336;2022-12-29T09:17:49;95720.88;;;15.63;100.00
10706;BME280;5404;42.656;23.336;2022-12-29T09:20:17;95718.88;;;17.13;100.00
10706;BME280;5404;42.656;23.336;2022-12-29T09:22:43;95712.19;;;17.76;87.35
10706;BME280;5404;42.656;23.336;2022-12-29T09:25:12;95716.19;;;19.05;78.39
10706;BME280;5404;42.656;23.336;2022-12-29T09:27:38;95712.22;;;19.40;72.58
10706;BME280;5404;42.656;23.336;2022-12-29T09:30:07;95711.97;;;19.24;68.88
10706;BME280;5404;42.656;23.336;2022-12-29T09:32:33;95710.97;;;19.37;70.56
10706;BME280;5404;42.656;23.336;2022-12-29T09:35:01;95711.03;;;20.11;65.86
10706;BME280;5404;42.656;23.336;2022-12-29T09:37:26;95713.94;;;20.71;59.27
10706;BME280;5404;42.656;23.336;2022-12-29T09:39:52;95705.34;;;20.57;59.25
10706;BME280;5404;42.656;23.336;2022-12-29T09:45:41;95703.91;;;19.16;63.42
10706;BME280;5404;42.656;23.336;2022-12-29T09:48:16;95682.47;;;18.82;66.53
10706;BME280;5404;42.656;23.336;2022-12-29T09:50:46;95683.50;;;18.60;66.56
10706;BME280;5404;42.656;23.336;2022-12-29T09:53:29;95691.22;;;18.79;66.57
10706;BME280;5404;42.656;23.336;2022-12-29T09:55:59;95665.28;;;19.65;66.07
10706;BME280;5404;42.656;23.336;2022-12-29T09:59:17;95683.84;;;20.28;59.79
10706;BME280;5404;42.656;23.336;2022-12-29T10:02:04;95691.19;;;19.66;60.89
10706;BME280;5404;42.656;23.336;2022-12-29T10:04:34;95675.19;;;18.74;65.67
10706;BME280;5404;42.656;23.336;2022-12-29T10:07:15;95676.47;;;18.76;68.04
10706;BME280;5404;42.656;23.336;2022-12-29T10:09:56;95657.91;;;20.27;62.15
10706;BME280;5404;42.656;23.336;2022-12-29T10:13:13;95672.16;;;20.60;57.99
10706;BME280;5404;42.656;23.336;2022-12-29T10:18:44;95660.38;;;21.13;54.30
10706;BME280;5404;42.656;23.336;2022-12-29T10:21:32;95666.63;;;21.02;55.87
10706;BME280;5404;42.656;23.336;2022-12-29T10:24:04;95669.63;;;20.31;55.97
10706;BME280;5404;42.656;23.336;2022-12-29T10:26:39;95658.84;;;19.90;58.52
10706;BME280;5404;42.656;23.336;2022-12-29T10:29:19;95666.38;;;21.07;54.90
10706;BME280;5404;42.656;23.336;2022-12-29T10:31:59;95664.22;;;21.12;53.62
10706;BME280;5404;42.656;23.336;2022-12-29T10:37:04;95654.41;;;19.73;58.09
10706;BME280;5404;42.656;23.336;2022-12-29T10:39:55;95648.41;;;19.68;58.42
10706;BME280;5404;42.656;23.336;2022-12-29T10:42:34;95650.22;;;20.17;59.01
10706;BME280;5404;42.656;23.336;2022-12-29T10:45:03;95646.25;;;20.71;58.73
10706;BME280;5404;42.656;23.336;2022-12-29T10:47:34;95625.59;;;19.36;61.85
10706;BME280;5404;42.656;23.336;2022-12-29T10:50:04;95640.75;;;19.70;60.83
10706;BME280;5404;42.656;23.336;2022-12-29T10:52:30;95631.75;;;19.78;59.78
10706;BME280;5404;42.656;23.336;2022-12-29T10:55:12;95638.66;;;19.34;61.82
10706;BME280;5404;42.656;23.336;2022-12-29T10:57:39;95633.13;;;19.51;62.50
10706;BME280;5404;42.656;23.336;2022-12-29T11:00:20;95619.13;;;19.49;61.23
10706;BME280;5404;42.656;23.336;2022-12-29T11:03:08;95624.28;;;18.93;63.99
10706;BME280;5404;42.656;23.336;2022-12-29T11:05:59;95614.81;;;20.22;60.84
10706;BME280;5404;42.656;23.336;2022-12-29T11:08:33;95615.38;;;20.40;57.33
10706;BME280;5404;42.656;23.336;2022-12-29T11:11:10;95610.13;;;19.78;59.85
10706;BME280;5404;42.656;23.336;2022-12-29T11:14:02;95609.16;;;19.21;64.54
10706;BME280;5404;42.656;23.336;2022-12-29T11:16:33;95609.06;;;19.38;63.92
10706;BME280;5404;42.656;23.336;2022-12-29T11:19:00;95603.69;;;19.09;62.77
10706;BME280;5404;42.656;23.336;2022-12-29T11:24:19;95581.13;;;18.09;68.27
10706;BME280;5404;42.656;23.336;2022-12-29T11:26:46;95610.00;;;18.08;69.78
10706;BME280;5404;42.656;23.336;2022-12-29T11:29:22;95600.50;;;18.02;73.81
10706;BME280;5404;42.656;23.336;2022-12-29T11:31:53;95601.34;;;18.70;71.60
10706;BME280;5404;42.656;23.336;2022-12-29T11:34:34;95595.94;;;19.48;66.12
10706;BME280;5404;42.656;23.336;2022-12-29T11:37:12;95581.66;;;19.19;66.20
10706;BME280;5404;42.656;23.336;2022-12-29T11:45:09;95587.41;;;19.91;62.68
10706;BME280;5404;42.656;23.336;2022-12-29T11:47:44;95578.25;;;19.84;61.92
10706;BME280;5404;42.656;23.336;2022-12-29T11:50:20;95577.84;;;19.61;63.56
10706;BME280;5404;42.656;23.336;2022-12-29T11:52:49;95577.72;;;19.90;62.81
10706;BME280;5404;42.656;23.336;2022-12-29T11:55:21;95584.03;;;19.20;64.23
10706;BME280;5404;42.656;23.336;2022-12-29T11:57:47;95592.53;;;18.14;68.88
10706;BME280;5404;42.656;23.336;2022-12-29T12:00:19;95581.00;;;16.69;82.42
10706;BME280;5404;42.656;23.336;2022-12-29T12:03:04;95590.63;;;16.53;85.77
10706;BME280;5404;42.656;23.336;2022-12-29T12:06:00;95580.97;;;15.60;95.20
10706;BME280;5404;42.656;23.336;2022-12-29T12:08:31;95586.00;;;15.53;96.45
10706;BME280;5404;42.656;23.336;2022-12-29T12:11:09;95580.69;;;15.61;97.68
10706;BME280;5404;42.656;23.336;2022-12-29T12:14:11;95580.91;;;15.73;98.79
10706;BME280;5404;42.656;23.336;2022-12-29T12:16:53;95579.69;;;16.18;96.67
10706;BME280;5404;42.656;23.336;2022-12-29T12:19:46;95578.06;;;15.48;99.29
10706;BME280;5404;42.656;23.336;2022-12-29T12:22:27;95568.03;;;14.82;100.00
10706;BME280;5404;42.656;23.336;2022-12-29T12:25:12;95573.16;;;14.43;100.00
10706;BME280;5404;42.656;23.336;2022-12-29T12:27:46;95573.72;;;14.26;100.00
10706;BME280;5404;42.656;23.336;2022-12-29T12:30:18;95563.19;;;14.43;100.00
10706;BME280;5404;42.656;23.336;2022-12-29T12:41:16;95563.50;;;14.42;100.00
10706;BME280;5404;42.656;23.336;2022-12-29T12:59:25;95558.47;;;11.77;100.00
10706;BME280;5404;42.656;23.336;2022-12-29T13:04:52;95552.66;;;11.69;100.00
10706;BME280;5404;42.656;23.336;2022-12-29T13:16:13;95576.75;;;11.31;100.00
10706;BME280;5404;42.656;23.336;2022-12-29T13:24:47;95573.34;;;11.25;100.00
10706;BME280;5404;42.656;23.336;2022-12-29T13:30:01;95572.00;;;11.28;100.00
10706;BME280;5404;42.656;23.336;2022-12-29T13:36:24;95569.09;;;11.24;100.00
10706;BME280;5404;42.656;23.336;2022-12-29T13:38:39;95559.31;;;11.10;100.00
10706;BME280;5404;42.656;23.336;2022-12-29T13:41:16;95581.22;;;11.07;100.00
10706;BME280;5404;42.656;23.336;2022-12-29T13:43:45;95581.69;;;11.14;100.00
10706;BME280;5404;42.656;23.336;2022-12-29T13:46:35;95576.56;;;11.22;100.00
10706;BME280;5404;42.656;23.336;2022-12-29T13:49:17;95577.13;;;11.19;100.00
10706;BME280;5404;42.656;23.336;2022-12-29T13:51:50;95577.16;;;11.14;100.00
10706;BME280;5404;42.656;23.336;2022-12-29T14:00:13;95575.47;;;11.23;100.00
10706;BME280;5404;42.656;23.336;2022-12-29T14:03:31;95574.50;;;11.14;100.00
10706;BME280;5404;42.656;23.336;2022-12-29T14:05:34;95582.78;;;11.08;100.00
10706;BME280;5404;42.656;23.336;2022-12-29T14:08:03;95583.59;;;11.08;100.00
10706;BME280;5404;42.656;23.336;2022-12-29T14:10:37;95576.47;;;10.99;100.00
10706;BME280;5404;42.656;23.336;2022-12-29T14:15:38;95585.69;;;10.78;100.00
10706;BME280;5404;42.656;23.336;2022-12-29T14:18:24;95587.28;;;10.74;100.00
10706;BME280;5404;42.656;23.336;2022-12-29T14:21:04;95583.41;;;10.61;100.00
10706;BME280;5404;42.656;23.336;2022-12-29T14:23:38;95600.75;;;10.53;100.00
10706;BME280;5404;42.656;23.336;2022-12-29T14:26:11;95606.66;;;10.40;100.00
10706;BME280;5404;42.656;23.336;2022-12-29T14:28:43;95600.03;;;10.33;100.00
10706;BME280;5404;42.656;23.336;2022-12-29T14:37:02;95616.59;;;10.20;100.00
10706;BME280;5404;42.656;23.336;2022-12-29T14:42:13;95624.06;;;10.23;100.00
10706;BME280;5404;42.656;23.336;2022-12-29T14:44:50;95623.28;;;10.17;100.00
10706;BME280;5404;42.656;23.336;2022-12-29T14:47:31;95624.06;;;10.18;100.00
10706;BME280;5404;42.656;23.336;2022-12-29T14:52:54;95623.31;;;9.97;100.00
10706;BME280;5404;42.656;23.336;2022-12-29T14:55:43;95628.13;;;9.85;100.00
10706;BME280;5404;42.656;23.336;2022-12-29T14:58:27;95640.66;;;9.65;100.00
10706;BME280;5404;42.656;23.336;2022-12-29T15:00:59;95626.31;;;9.40;100.00
10706;BME280;5404;42.656;23.336;2022-12-29T15:03:32;95644.94;;;9.35;100.00
10706;BME280;5404;42.656;23.336;2022-12-29T15:06:06;95636.91;;;9.20;100.00
10706;BME280;5404;42.656;23.336;2022-12-29T15:08:42;95641.69;;;9.13;100.00
10706;BME280;5404;42.656;23.336;2022-12-29T15:14:56;95652.06;;;9.00;100.00
10706;BME280;5404;42.656;23.336;2022-12-29T15:17:27;95654.97;;;8.88;100.00
10706;BME280;5404;42.656;23.336;2022-12-29T15:19:56;95659.19;;;8.84;100.00
10706;BME280;5404;42.656;23.336;2022-12-29T15:22:22;95658.41;;;8.79;100.00
10706;BME280;5404;42.656;23.336;2022-12-29T15:24:53;95649.03;;;8.56;100.00
10706;BME280;5404;42.656;23.336;2022-12-29T15:27:22;95648.97;;;8.41;100.00
10706;BME280;5404;42.656;23.336;2022-12-29T15:29:59;95671.00;;;8.37;100.00
10706;BME280;5404;42.656;23.336;2022-12-29T15:32:39;95668.03;;;8.28;100.00
10706;BME280;5404;42.656;23.336;2022-12-29T15:35:39;95666.56;;;8.10;100.00
10706;BME280;5404;42.656;23.336;2022-12-29T15:38:14;95655.09;;;8.00;100.00